createdAt,value
2023-05-21T00:00:31.077Z,116.27
2023-05-21T00:02:59.077Z,116.20
2023-05-21T00:05:27.087Z,116.87
2023-05-21T00:07:54.853Z,116.57
2023-05-21T00:10:22.105Z,116.57
2023-05-21T00:12:49.538Z,116.77
2023-05-21T00:15:17.030Z,116.67
2023-05-21T00:17:44.475Z,116.50
2023-05-21T00:20:12.891Z,116.40
2023-05-21T00:22:42.097Z,116.60
2023-05-21T00:25:11.418Z,116.30
2023-05-21T00:27:38.951Z,116.27
2023-05-21T00:30:07.222Z,117.17
2023-05-21T00:32:34.740Z,116.60
2023-05-21T00:35:02.898Z,116.67
2023-05-21T00:37:32.825Z,116.77
2023-05-21T00:40:01.722Z,116.87
2023-05-21T00:42:30.469Z,116.50
2023-05-21T00:44:58.185Z,116.60
2023-05-21T00:47:29.406Z,117.00
2023-05-21T00:49:56.975Z,116.10
2023-05-21T00:52:27.284Z,116.60
2023-05-21T00:54:55.111Z,116.60
2023-05-21T00:57:27.278Z,116.20
2023-05-21T00:59:54.796Z,116.33
2023-05-21T01:02:24.212Z,116.87
2023-05-21T01:04:56.080Z,116.10
2023-05-21T01:07:23.601Z,116.13
2023-05-21T01:09:51.057Z,116.20
2023-05-21T01:12:20.741Z,116.67
2023-05-21T01:14:49.109Z,116.30
2023-05-21T01:17:16.930Z,116.10
2023-05-21T01:19:44.927Z,116.50
2023-05-21T01:22:14.262Z,116.27
2023-05-21T01:24:41.614Z,116.40
2023-05-21T01:27:10.338Z,116.80
2023-05-21T01:29:37.908Z,116.60
2023-05-21T01:33:02.954Z,115.87
2023-05-21T01:35:39.291Z,116.90
2023-05-21T01:38:25.177Z,116.30
2023-05-21T01:41:14.002Z,116.60
2023-05-21T01:43:46.310Z,115.40
2023-05-21T01:46:20.386Z,115.47
2023-05-21T01:48:50.608Z,116.37
2023-05-21T01:51:18.345Z,116.03
2023-05-21T01:53:45.420Z,116.67
2023-05-21T01:56:12.954Z,115.80
2023-05-21T01:58:40.478Z,115.80
2023-05-21T02:01:08.691Z,115.97
2023-05-21T02:03:36.692Z,116.00
2023-05-21T02:06:04.346Z,115.90
2023-05-21T02:08:31.334Z,115.50
2023-05-21T02:10:59.201Z,115.70
2023-05-21T02:13:27.031Z,116.03
2023-05-21T02:15:56.114Z,115.43
2023-05-21T02:18:24.485Z,115.60
2023-05-21T02:20:52.131Z,115.60
2023-05-21T02:23:19.148Z,115.77
2023-05-21T02:25:46.155Z,116.30
2023-05-21T02:28:13.302Z,115.60
2023-05-21T02:30:40.991Z,115.97
2023-05-21T02:33:09.035Z,116.10
2023-05-21T02:35:37.029Z,115.80
2023-05-21T02:38:04.323Z,116.10
2023-05-21T02:40:33.110Z,115.67
2023-05-21T02:43:00.423Z,115.23
2023-05-21T02:45:30.464Z,116.07
2023-05-21T02:47:57.887Z,115.70
2023-05-21T02:50:25.052Z,115.77
2023-05-21T02:52:57.324Z,115.83
2023-05-21T02:55:24.853Z,116.00
2023-05-21T02:57:52.329Z,115.80
2023-05-21T03:00:19.479Z,116.57
2023-05-21T03:02:47.064Z,115.97
2023-05-21T03:05:14.712Z,116.67
2023-05-21T03:07:43.452Z,116.37
2023-05-21T03:10:11.703Z,116.00
2023-05-21T03:12:39.204Z,116.77
2023-05-21T03:15:07.287Z,116.07
2023-05-21T03:17:35.054Z,116.20
2023-05-21T03:20:05.698Z,116.60
2023-05-21T03:22:33.585Z,116.30
2023-05-21T03:25:01.754Z,116.73
2023-05-21T03:27:29.514Z,115.90
2023-05-21T03:29:57.510Z,116.60
2023-05-21T03:32:25.564Z,116.43
2023-05-21T03:34:56.219Z,116.73
2023-05-21T03:37:24.831Z,116.53
2023-05-21T03:39:52.423Z,116.40
2023-05-21T03:42:20.089Z,116.60
2023-05-21T03:44:52.243Z,116.40
2023-05-21T03:47:42.893Z,116.40
2023-05-21T03:50:11.267Z,117.13
2023-05-21T03:52:38.871Z,116.40
2023-05-21T03:55:07.108Z,116.70
2023-05-21T03:57:34.363Z,116.50
2023-05-21T04:00:02.533Z,116.87
2023-05-21T04:05:00.281Z,116.90
2023-05-21T04:07:29.845Z,116.77
2023-05-21T04:09:57.458Z,116.60
2023-05-21T04:12:25.053Z,116.23
2023-05-21T04:14:52.643Z,116.47
2023-05-21T04:17:20.782Z,115.87
2023-05-21T04:19:48.632Z,116.10
2023-05-21T04:22:16.355Z,116.53
2023-05-21T04:24:46.391Z,116.27
2023-05-21T04:27:17.825Z,115.73
2023-05-21T04:29:45.971Z,115.30
2023-05-21T04:32:15.119Z,115.87
2023-05-21T04:34:42.870Z,115.70
2023-05-21T04:37:10.604Z,116.27
2023-05-21T04:39:37.705Z,116.23
2023-05-21T04:42:05.568Z,116.00
2023-05-21T04:44:33.644Z,115.90
2023-05-21T04:47:02.128Z,115.97
2023-05-21T04:49:31.706Z,118.40
2023-05-21T04:52:02.092Z,115.27
2023-05-21T04:54:30.039Z,115.87
2023-05-21T04:56:58.042Z,116.77
2023-05-21T04:59:25.588Z,116.10
2023-05-21T05:01:53.325Z,116.57
2023-05-21T05:04:22.341Z,117.43
2023-05-21T05:06:50.470Z,116.77
2023-05-21T05:09:18.843Z,116.17
2023-05-21T05:11:46.402Z,116.10
2023-05-21T05:14:14.066Z,116.43
2023-05-21T05:16:43.890Z,115.57
2023-05-21T05:19:11.234Z,115.77
2023-05-21T05:21:38.696Z,115.83
2023-05-21T05:24:06.582Z,115.83
2023-05-21T05:26:34.138Z,115.10
2023-05-21T05:29:01.338Z,115.03
2023-05-21T05:31:29.074Z,114.93
2023-05-21T05:33:57.454Z,115.47
2023-05-21T05:36:26.273Z,114.87
2023-05-21T05:38:53.812Z,115.07
2023-05-21T05:41:22.581Z,115.30
2023-05-21T05:43:50.489Z,114.97
2023-05-21T05:46:19.122Z,115.10
2023-05-21T05:48:46.206Z,115.00
2023-05-21T05:51:15.273Z,115.10
2023-05-21T05:53:42.330Z,115.00
2023-05-21T05:56:09.925Z,115.07
2023-05-21T05:58:37.677Z,115.33
2023-05-21T06:01:11.829Z,115.17
2023-05-21T06:03:39.938Z,115.87
2023-05-21T06:06:17.162Z,115.60
2023-05-21T06:08:46.173Z,115.80
2023-05-21T06:11:16.936Z,116.03
2023-05-21T06:13:43.964Z,116.20
2023-05-21T06:16:11.617Z,115.77
2023-05-21T06:18:39.432Z,115.07
2023-05-21T06:21:06.611Z,116.73
2023-05-21T06:23:36.434Z,116.17
2023-05-21T06:26:06.863Z,116.07
2023-05-21T06:28:35.240Z,115.87
2023-05-21T06:31:02.964Z,115.37
2023-05-21T06:33:33.199Z,115.40
2023-05-21T06:36:01.524Z,115.57
2023-05-21T06:38:29.198Z,115.47
2023-05-21T06:40:58.294Z,116.13
2023-05-21T06:43:39.893Z,115.30
2023-05-21T06:46:27.443Z,115.47
2023-05-21T06:48:55.066Z,115.57
2023-05-21T06:51:22.061Z,115.60
2023-05-21T06:53:49.470Z,116.27
2023-05-21T06:56:19.312Z,115.17
2023-05-21T06:58:47.299Z,116.20
2023-05-21T07:01:16.881Z,116.10
2023-05-21T07:03:44.571Z,114.37
2023-05-21T07:06:12.668Z,113.80
2023-05-21T07:08:40.286Z,113.90
2023-05-21T07:11:07.830Z,114.23
2023-05-21T07:13:36.729Z,114.03
2023-05-21T07:16:04.575Z,112.97
2023-05-21T07:18:32.836Z,114.27
2023-05-21T07:21:00.397Z,115.23
2023-05-21T07:23:28.388Z,115.20
2023-05-21T07:25:56.078Z,114.17
2023-05-21T07:28:23.773Z,115.13
2023-05-21T07:30:51.392Z,113.67
2023-05-21T07:33:23.229Z,114.37
2023-05-21T07:35:52.489Z,116.03
2023-05-21T07:38:20.210Z,114.43
2023-05-21T07:40:47.739Z,112.17
2023-05-21T07:43:15.710Z,113.10
2023-05-21T07:45:43.363Z,113.07
2023-05-21T07:48:11.668Z,112.70
2023-05-21T07:50:52.421Z,112.87
2023-05-21T07:53:21.031Z,112.20
2023-05-21T07:55:48.262Z,112.73
2023-05-21T07:58:20.108Z,112.50
2023-05-21T08:03:39.365Z,112.10
2023-05-21T08:06:06.689Z,112.67
2023-05-21T08:08:35.278Z,114.13
2023-05-21T08:11:03.993Z,112.00
2023-05-21T08:13:31.704Z,114.57
2023-05-21T08:15:59.156Z,112.80
2023-05-21T08:18:28.417Z,111.93
2023-05-21T08:20:56.931Z,114.40
2023-05-21T08:23:27.071Z,116.27
2023-05-21T08:25:56.370Z,115.57
2023-05-21T08:28:23.965Z,117.27
2023-05-21T08:30:52.387Z,117.47
2023-05-21T08:33:22.146Z,116.70
2023-05-21T08:35:49.971Z,115.87
2023-05-21T08:38:43.310Z,115.00
2023-05-21T08:41:23.280Z,115.40
2023-05-21T08:43:59.725Z,115.00
2023-05-21T08:46:34.620Z,115.70
2023-05-21T08:49:03.501Z,115.50
2023-05-21T08:51:31.660Z,114.57
2023-05-21T08:54:02.487Z,115.50
2023-05-21T08:56:32.520Z,115.20
2023-05-21T08:59:00.403Z,115.57
2023-05-21T09:01:34.460Z,116.87
2023-05-21T09:04:21.155Z,116.47
2023-05-21T09:06:52.177Z,115.00
2023-05-21T09:10:00.193Z,114.63
2023-05-21T09:12:28.407Z,114.50
2023-05-21T09:14:59.595Z,113.97
2023-05-21T09:17:31.870Z,112.77
2023-05-21T09:20:18.276Z,112.80
2023-05-21T09:22:55.639Z,112.90
2023-05-21T09:25:30.813Z,112.47
2023-05-21T09:28:03.775Z,111.50
2023-05-21T09:30:33.316Z,112.00
2023-05-21T09:33:03.900Z,113.10
2023-05-21T09:35:33.481Z,116.17
2023-05-21T09:38:01.776Z,120.37
2023-05-21T09:40:28.954Z,125.57
2023-05-21T09:42:56.833Z,127.27
2023-05-21T09:45:28.645Z,118.60
2023-05-21T09:47:58.680Z,112.90
2023-05-21T09:50:31.463Z,111.40
2023-05-21T09:52:59.024Z,111.00
2023-05-21T09:55:28.376Z,111.90
2023-05-21T09:57:56.021Z,112.47
2023-05-21T10:00:28.037Z,110.87
2023-05-21T10:03:00.922Z,110.90
2023-05-21T10:05:30.558Z,111.07
2023-05-21T10:08:03.831Z,110.83
2023-05-21T10:10:32.471Z,110.87
2023-05-21T10:13:09.054Z,110.30
2023-05-21T10:15:48.818Z,109.37
2023-05-21T10:18:21.520Z,110.87
2023-05-21T10:20:49.665Z,109.17
2023-05-21T10:23:18.963Z,109.77
2023-05-21T10:25:47.747Z,109.67
2023-05-21T10:28:19.712Z,110.97
2023-05-21T10:30:47.121Z,112.60
2023-05-21T10:33:17.107Z,114.90
2023-05-21T10:35:48.110Z,114.20
2023-05-21T10:38:20.687Z,113.90
2023-05-21T10:40:49.549Z,111.37
2023-05-21T10:43:52.812Z,111.10
2023-05-21T10:47:05.452Z,111.37
2023-05-21T10:50:14.884Z,112.07
2023-05-21T10:53:22.846Z,112.40
2023-05-21T10:56:32.999Z,110.80
2023-05-21T10:59:47.697Z,110.10
2023-05-21T11:02:18.010Z,110.43
2023-05-21T11:04:48.839Z,110.67
2023-05-21T11:07:26.266Z,110.50
2023-05-21T11:09:53.448Z,109.63
2023-05-21T11:12:24.113Z,108.47
2023-05-21T11:14:58.369Z,109.27
2023-05-21T11:17:40.655Z,108.97
2023-05-21T11:20:16.757Z,109.20
2023-05-21T11:22:46.751Z,109.50
2023-05-21T11:25:15.417Z,111.07
2023-05-21T11:27:42.927Z,111.27
2023-05-21T11:30:18.849Z,110.07
2023-05-21T11:33:07.988Z,111.80
2023-05-21T11:35:54.209Z,110.90
2023-05-21T11:38:21.774Z,111.40
2023-05-21T11:40:55.673Z,110.80
2023-05-21T11:43:23.877Z,111.60
2023-05-21T11:45:53.293Z,111.27
2023-05-21T11:48:27.065Z,111.80
2023-05-21T11:50:55.520Z,111.60
2023-05-21T11:53:22.554Z,111.97
2023-05-21T11:55:57.070Z,112.07
2023-05-21T11:58:24.173Z,111.67
2023-05-21T12:00:52.275Z,111.87
2023-05-21T12:03:26.539Z,112.43
2023-05-21T12:05:54.268Z,118.57
2023-05-21T12:08:27.981Z,120.17
2023-05-21T12:10:59.763Z,117.77
2023-05-21T12:13:28.085Z,115.10
2023-05-21T12:15:56.002Z,114.60
2023-05-21T12:18:24.133Z,114.43
2023-05-21T12:20:54.616Z,116.40
2023-05-21T12:23:24.884Z,114.60
2023-05-21T12:25:53.667Z,114.07
2023-05-21T12:28:24.671Z,114.10
2023-05-21T12:30:53.355Z,115.40
2023-05-21T12:33:21.208Z,115.17
2023-05-21T12:35:51.487Z,116.03
2023-05-21T12:38:19.859Z,114.60
2023-05-21T12:40:47.453Z,114.17
2023-05-21T12:43:15.756Z,114.40
2023-05-21T12:45:43.883Z,114.47
2023-05-21T12:48:12.402Z,115.03
2023-05-21T12:50:41.743Z,115.57
2023-05-21T12:53:11.457Z,117.30
2023-05-21T12:55:40.309Z,121.40
2023-05-21T12:58:08.648Z,113.83
2023-05-21T13:00:36.749Z,111.50
2023-05-21T13:03:06.141Z,109.93
2023-05-21T13:05:33.914Z,108.90
2023-05-21T13:08:01.588Z,109.27
2023-05-21T13:10:29.108Z,107.00
2023-05-21T13:12:57.549Z,108.00
2023-05-21T13:15:27.032Z,108.63
2023-05-21T13:17:56.624Z,108.97
2023-05-21T13:20:27.033Z,110.37
2023-05-21T13:22:54.835Z,110.27
2023-05-21T13:25:28.334Z,110.60
2023-05-21T13:27:57.992Z,110.40
2023-05-21T13:30:25.212Z,110.97
2023-05-21T13:32:52.626Z,110.37
2023-05-21T13:35:20.453Z,110.00
2023-05-21T13:37:47.850Z,110.00
2023-05-21T13:40:16.454Z,109.50
2023-05-21T13:42:46.608Z,109.70
2023-05-21T13:45:18.907Z,109.63
2023-05-21T13:47:48.258Z,109.57
2023-05-21T13:50:16.802Z,109.87
2023-05-21T13:52:44.407Z,110.00
2023-05-21T13:55:15.609Z,109.67
2023-05-21T13:57:43.692Z,110.57
2023-05-21T14:00:14.190Z,109.07
2023-05-21T14:02:43.633Z,109.93
2023-05-21T14:05:12.055Z,110.20
2023-05-21T14:07:40.024Z,109.37
2023-05-21T14:10:08.305Z,109.00
2023-05-21T14:12:35.528Z,108.33
2023-05-21T14:15:04.076Z,108.47
2023-05-21T14:17:31.840Z,108.70
2023-05-21T14:19:58.979Z,108.63
2023-05-21T14:22:26.174Z,109.03
2023-05-21T14:24:53.224Z,110.37
2023-05-21T14:27:20.695Z,110.30
2023-05-21T14:29:48.171Z,110.70
2023-05-21T14:32:15.329Z,109.87
2023-05-21T14:34:42.872Z,109.30
2023-05-21T14:37:10.246Z,110.80
2023-05-21T14:39:37.687Z,110.17
2023-05-21T14:42:05.724Z,109.67
2023-05-21T14:44:33.381Z,110.10
2023-05-21T14:47:00.546Z,108.90
2023-05-21T14:49:28.074Z,109.63
2023-05-21T14:51:55.694Z,111.60
2023-05-21T14:54:23.195Z,111.83
2023-05-21T14:56:50.832Z,113.90
2023-05-21T14:59:18.481Z,114.53
2023-05-21T15:01:45.878Z,114.87
2023-05-21T15:04:13.659Z,113.47
2023-05-21T15:06:41.890Z,112.53
2023-05-21T15:09:09.035Z,113.90
2023-05-21T15:11:36.191Z,113.37
2023-05-21T15:14:03.749Z,111.97
2023-05-21T15:16:31.198Z,112.87
2023-05-21T15:18:58.745Z,112.57
2023-05-21T15:21:28.098Z,112.67
2023-05-21T15:23:55.577Z,112.20
2023-05-21T15:26:25.256Z,110.00
2023-05-21T15:28:52.883Z,109.60
2023-05-21T15:31:21.073Z,109.57
2023-05-21T15:33:48.937Z,109.37
2023-05-21T15:36:16.401Z,110.03
2023-05-21T15:38:44.096Z,110.57
2023-05-21T15:41:11.193Z,111.40
2023-05-21T15:43:38.518Z,113.20
2023-05-21T15:46:05.768Z,112.13
2023-05-21T15:48:33.375Z,111.40
2023-05-21T15:51:00.924Z,110.27
2023-05-21T15:53:28.476Z,109.57
2023-05-21T15:55:57.006Z,110.17
2023-05-21T15:58:24.087Z,109.60
2023-05-21T16:00:51.674Z,110.30
2023-05-21T16:03:19.393Z,109.77
2023-05-21T16:05:47.013Z,110.60
2023-05-21T16:08:14.103Z,111.87
2023-05-21T16:10:41.698Z,113.00
2023-05-21T16:13:09.046Z,114.03
2023-05-21T16:15:36.392Z,114.90
2023-05-21T16:18:08.231Z,115.40
2023-05-21T16:20:35.800Z,116.00
2023-05-21T16:23:06.184Z,117.30
2023-05-21T16:25:35.971Z,116.27
2023-05-21T16:28:04.054Z,114.83
2023-05-21T16:30:31.209Z,113.57
2023-05-21T16:32:58.869Z,112.60
2023-05-21T16:35:26.383Z,112.67
2023-05-21T16:37:54.025Z,111.67
2023-05-21T16:40:21.081Z,112.17
2023-05-21T16:42:48.585Z,112.20
2023-05-21T16:45:21.847Z,111.60
2023-05-21T16:47:50.905Z,112.53
2023-05-21T16:50:19.260Z,112.47
2023-05-21T16:52:46.427Z,112.40
2023-05-21T16:55:14.054Z,112.50
2023-05-21T16:57:41.765Z,112.30
2023-05-21T17:00:09.544Z,112.67
2023-05-21T17:02:37.123Z,113.77
2023-05-21T17:05:05.226Z,113.87
2023-05-21T17:07:33.108Z,113.87
2023-05-21T17:10:00.386Z,114.43
2023-05-21T17:12:28.148Z,113.27
2023-05-21T17:14:55.846Z,112.27
2023-05-21T17:17:22.937Z,115.37
2023-05-21T17:19:50.511Z,113.10
2023-05-21T17:22:18.478Z,115.97
2023-05-21T17:24:46.243Z,115.17
2023-05-21T17:27:13.778Z,114.50
2023-05-21T17:29:42.534Z,116.87
2023-05-21T17:32:12.122Z,117.90
2023-05-21T17:34:39.884Z,117.00
2023-05-21T17:37:07.459Z,118.13
2023-05-21T17:39:34.951Z,119.93
2023-05-21T17:42:02.565Z,120.97
2023-05-21T17:44:30.216Z,120.77
2023-05-21T17:46:57.763Z,121.70
2023-05-21T17:49:25.539Z,122.97
2023-05-21T17:51:53.444Z,124.50
2023-05-21T17:54:21.425Z,126.00
2023-05-21T17:56:48.995Z,129.50
2023-05-21T17:59:16.696Z,129.23
2023-05-21T18:01:43.724Z,128.83
2023-05-21T18:04:12.640Z,129.17
2023-05-21T18:06:40.482Z,127.67
2023-05-21T18:09:07.879Z,129.47
2023-05-21T18:11:35.423Z,129.17
2023-05-21T18:14:04.079Z,127.17
2023-05-21T18:16:31.712Z,125.87
2023-05-21T18:19:01.845Z,124.10
2023-05-21T18:21:29.587Z,122.87
2023-05-21T18:23:56.941Z,122.50
2023-05-21T18:26:24.975Z,121.60
2023-05-21T18:28:52.580Z,120.27
2023-05-21T18:31:20.624Z,120.40
2023-05-21T18:33:48.500Z,121.83
2023-05-21T18:36:17.126Z,121.00
2023-05-21T18:38:44.644Z,121.00
2023-05-21T18:41:12.381Z,121.47
2023-05-21T18:43:41.577Z,120.40
2023-05-21T18:46:09.222Z,122.07
2023-05-21T18:48:37.111Z,122.33
2023-05-21T18:51:05.409Z,122.07
2023-05-21T18:53:32.611Z,121.27
2023-05-21T18:56:00.350Z,121.87
2023-05-21T18:58:29.204Z,120.93
2023-05-21T19:00:56.763Z,122.97
2023-05-21T19:03:23.810Z,120.87
2023-05-21T19:05:51.952Z,121.73
2023-05-21T19:08:19.007Z,118.80
2023-05-21T19:10:46.819Z,119.50
2023-05-21T19:13:14.158Z,118.57
2023-05-21T19:15:46.719Z,119.00
2023-05-21T19:18:14.978Z,120.60
2023-05-21T19:20:42.586Z,119.27
2023-05-21T19:23:10.398Z,119.50
2023-05-21T19:25:38.438Z,119.97
2023-05-21T19:28:06.352Z,120.20
2023-05-21T19:30:36.374Z,121.33
2023-05-21T19:33:04.361Z,121.23
2023-05-21T19:35:31.959Z,122.17
2023-05-21T19:38:00.752Z,122.07
2023-05-21T19:40:30.852Z,123.20
2023-05-21T19:42:58.016Z,123.27
2023-05-21T19:45:25.773Z,124.33
2023-05-21T19:47:53.497Z,125.73
2023-05-21T19:50:20.749Z,126.90
2023-05-21T19:52:48.345Z,130.77
2023-05-21T19:55:20.028Z,130.10
2023-05-21T19:57:47.353Z,132.37
2023-05-21T20:00:15.773Z,130.50
2023-05-21T20:02:42.908Z,128.57
2023-05-21T20:05:10.713Z,127.73
2023-05-21T20:07:42.073Z,125.37
2023-05-21T20:10:13.116Z,127.30
2023-05-21T20:12:44.981Z,127.07
2023-05-21T20:15:14.445Z,126.57
2023-05-21T20:17:44.063Z,124.73
2023-05-21T20:20:13.059Z,123.20
2023-05-21T20:22:40.944Z,120.30
2023-05-21T20:25:09.091Z,118.27
2023-05-21T20:27:38.566Z,117.80
2023-05-21T20:30:09.220Z,116.50
2023-05-21T20:32:37.141Z,116.43
2023-05-21T20:35:08.753Z,116.77
2023-05-21T20:37:36.745Z,116.37
2023-05-21T20:40:06.533Z,115.90
2023-05-21T20:42:36.621Z,116.03
2023-05-21T20:45:04.571Z,116.87
2023-05-21T20:47:33.819Z,116.20
2023-05-21T20:50:02.791Z,116.50
2023-05-21T20:52:30.733Z,115.87
2023-05-21T20:54:59.414Z,116.53
2023-05-21T20:57:27.297Z,116.77
2023-05-21T20:59:55.006Z,116.00
2023-05-21T21:02:23.178Z,116.57
2023-05-21T21:04:50.963Z,116.57
2023-05-21T21:07:19.303Z,115.50
2023-05-21T21:09:48.364Z,116.07
2023-05-21T21:12:26.222Z,116.10
2023-05-21T21:14:54.490Z,115.57
2023-05-21T21:17:22.791Z,115.87
2023-05-21T21:19:50.548Z,115.53
2023-05-21T21:22:18.403Z,116.00
2023-05-21T21:24:45.818Z,115.77
2023-05-21T21:27:13.489Z,116.17
2023-05-21T21:29:41.015Z,116.53
2023-05-21T21:32:08.385Z,116.83
2023-05-21T21:34:36.025Z,116.93
2023-05-21T21:37:04.144Z,117.57
2023-05-21T21:39:31.624Z,117.57
2023-05-21T21:41:59.184Z,117.47
2023-05-21T21:44:26.709Z,118.07
2023-05-21T21:46:54.212Z,117.30
2023-05-21T21:49:21.758Z,118.47
2023-05-21T21:51:49.274Z,117.67
2023-05-21T21:54:16.858Z,118.67
2023-05-21T21:56:43.847Z,118.30
2023-05-21T21:59:11.481Z,118.27
2023-05-21T22:01:39.372Z,117.80
2023-05-21T22:04:07.506Z,117.40
2023-05-21T22:06:34.982Z,117.47
2023-05-21T22:09:02.584Z,117.17
2023-05-21T22:11:30.291Z,118.13
2023-05-21T22:13:57.788Z,118.17
2023-05-21T22:16:24.914Z,118.47
2023-05-21T22:18:53.998Z,118.07
2023-05-21T22:21:21.731Z,117.80
2023-05-21T22:23:49.341Z,117.30
2023-05-21T22:26:17.434Z,117.00
2023-05-21T22:28:44.935Z,116.97
2023-05-21T22:31:12.518Z,116.20
2023-05-21T22:33:39.697Z,116.30
2023-05-21T22:36:07.515Z,116.20
2023-05-21T22:38:35.062Z,116.30
2023-05-21T22:41:03.544Z,116.20
2023-05-21T22:43:33.403Z,116.00
2023-05-21T22:46:01.739Z,116.47
2023-05-21T22:48:31.855Z,116.43
2023-05-21T22:51:01.654Z,116.77
2023-05-21T22:53:29.213Z,115.97
2023-05-21T22:55:56.728Z,117.07
2023-05-21T22:58:24.001Z,116.30
2023-05-21T23:00:51.105Z,116.87
2023-05-21T23:03:18.170Z,116.00
2023-05-21T23:05:45.799Z,115.97
2023-05-21T23:08:13.731Z,116.20
2023-05-21T23:10:41.581Z,116.20
2023-05-21T23:13:09.205Z,116.30
2023-05-21T23:15:38.627Z,115.60
2023-05-21T23:18:07.557Z,116.07
2023-05-21T23:20:35.275Z,115.73
2023-05-21T23:23:03.007Z,115.30
2023-05-21T23:25:30.772Z,115.57
2023-05-21T23:27:57.782Z,116.17
2023-05-21T23:30:25.217Z,115.80
2023-05-21T23:32:52.764Z,116.10
2023-05-21T23:35:20.303Z,115.90
2023-05-21T23:37:47.853Z,115.90
2023-05-21T23:40:15.789Z,115.27
2023-05-21T23:42:43.353Z,116.10
2023-05-21T23:45:11.341Z,116.07
2023-05-21T23:47:38.462Z,116.37
2023-05-21T23:50:06.953Z,115.80
2023-05-21T23:52:34.079Z,116.00
2023-05-21T23:55:01.517Z,115.27
2023-05-21T23:57:28.676Z,115.73
2023-05-21T23:59:55.688Z,115.40
